sensor_id;sensor_type;location;lat;lon;timestamp;P1;durP1;ratioP1;P2;durP2;ratioP2
43877;SDS011;29815;48.184;11.268;2023-04-25T00:01:31;3.40;;;2.33;;
43877;SDS011;29815;48.184;11.268;2023-04-25T00:04:04;5.47;;;2.53;;
43877;SDS011;29815;48.184;11.268;2023-04-25T00:06:36;3.13;;;2.33;;
43877;SDS011;29815;48.184;11.268;2023-04-25T00:09:06;5.28;;;2.70;;
43877;SDS011;29815;48.184;11.268;2023-04-25T00:11:37;3.67;;;2.67;;
43877;SDS011;29815;48.184;11.268;2023-04-25T00:14:07;3.13;;;2.35;;
43877;SDS011;29815;48.184;11.268;2023-04-25T00:16:37;4.32;;;2.28;;
43877;SDS011;29815;48.184;11.268;2023-04-25T00:19:10;3.30;;;2.53;;
43877;SDS011;29815;48.184;11.268;2023-04-25T00:21:40;4.47;;;2.53;;
43877;SDS011;29815;48.184;11.268;2023-04-25T00:24:13;3.92;;;2.58;;
43877;SDS011;29815;48.184;11.268;2023-04-25T00:26:43;6.70;;;3.00;;
43877;SDS011;29815;48.184;11.268;2023-04-25T00:29:12;5.07;;;2.60;;
43877;SDS011;29815;48.184;11.268;2023-04-25T00:31:42;5.65;;;2.78;;
43877;SDS011;29815;48.184;11.268;2023-04-25T00:34:13;4.03;;;2.65;;
43877;SDS011;29815;48.184;11.268;2023-04-25T00:36:43;3.10;;;2.15;;
43877;SDS011;29815;48.184;11.268;2023-04-25T00:39:12;4.28;;;1.90;;
43877;SDS011;29815;48.184;11.268;2023-04-25T00:41:42;3.70;;;2.50;;
43877;SDS011;29815;48.184;11.268;2023-04-25T00:44:13;4.85;;;2.63;;
43877;SDS011;29815;48.184;11.268;2023-04-25T00:46:45;5.03;;;2.75;;
43877;SDS011;29815;48.184;11.268;2023-04-25T00:49:18;3.97;;;2.78;;
43877;SDS011;29815;48.184;11.268;2023-04-25T00:51:48;3.88;;;2.83;;
43877;SDS011;29815;48.184;11.268;2023-04-25T00:54:17;3.92;;;2.53;;
43877;SDS011;29815;48.184;11.268;2023-04-25T00:56:47;3.58;;;2.70;;
43877;SDS011;29815;48.184;11.268;2023-04-25T00:59:17;4.07;;;2.78;;
43877;SDS011;29815;48.184;11.268;2023-04-25T01:01:47;4.75;;;2.90;;
43877;SDS011;29815;48.184;11.268;2023-04-25T01:04:19;5.45;;;2.78;;
43877;SDS011;29815;48.184;11.268;2023-04-25T01:06:49;2.92;;;2.28;;
43877;SDS011;29815;48.184;11.268;2023-04-25T01:09:19;4.82;;;2.50;;
43877;SDS011;29815;48.184;11.268;2023-04-25T01:11:50;3.38;;;2.65;;
43877;SDS011;29815;48.184;11.268;2023-04-25T01:14:20;2.88;;;2.20;;
43877;SDS011;29815;48.184;11.268;2023-04-25T01:16:50;8.77;;;2.67;;
43877;SDS011;29815;48.184;11.268;2023-04-25T01:19:24;3.08;;;2.28;;
43877;SDS011;29815;48.184;11.268;2023-04-25T01:21:55;3.33;;;2.40;;
43877;SDS011;29815;48.184;11.268;2023-04-25T01:24:25;3.75;;;2.50;;
43877;SDS011;29815;48.184;11.268;2023-04-25T01:26:56;3.58;;;2.03;;
43877;SDS011;29815;48.184;11.268;2023-04-25T01:29:28;3.65;;;2.30;;
43877;SDS011;29815;48.184;11.268;2023-04-25T01:31:58;3.13;;;2.60;;
43877;SDS011;29815;48.184;11.268;2023-04-25T01:34:28;4.05;;;2.80;;
43877;SDS011;29815;48.184;11.268;2023-04-25T01:37:00;3.85;;;2.78;;
43877;SDS011;29815;48.184;11.268;2023-04-25T01:39:29;2.92;;;2.63;;
43877;SDS011;29815;48.184;11.268;2023-04-25T01:41:59;3.42;;;2.63;;
43877;SDS011;29815;48.184;11.268;2023-04-25T01:44:30;6.60;;;2.63;;
43877;SDS011;29815;48.184;11.268;2023-04-25T01:47:00;3.97;;;2.72;;
43877;SDS011;29815;48.184;11.268;2023-04-25T01:49:31;4.05;;;2.80;;
43877;SDS011;29815;48.184;11.268;2023-04-25T01:52:02;3.15;;;2.50;;
43877;SDS011;29815;48.184;11.268;2023-04-25T01:54:32;4.07;;;3.08;;
43877;SDS011;29815;48.184;11.268;2023-04-25T01:57:01;4.05;;;2.60;;
43877;SDS011;29815;48.184;11.268;2023-04-25T01:59:33;3.55;;;2.90;;
43877;SDS011;29815;48.184;11.268;2023-04-25T02:04:46;5.07;;;2.90;;
43877;SDS011;29815;48.184;11.268;2023-04-25T02:07:17;4.13;;;2.47;;
43877;SDS011;29815;48.184;11.268;2023-04-25T02:09:52;3.72;;;2.63;;
43877;SDS011;29815;48.184;11.268;2023-04-25T02:12:23;3.53;;;2.35;;
43877;SDS011;29815;48.184;11.268;2023-04-25T02:15:19;4.35;;;2.53;;
43877;SDS011;29815;48.184;11.268;2023-04-25T02:20:22;4.63;;;2.40;;
43877;SDS011;29815;48.184;11.268;2023-04-25T02:22:54;3.05;;;2.75;;
43877;SDS011;29815;48.184;11.268;2023-04-25T02:25:24;2.55;;;2.30;;
43877;SDS011;29815;48.184;11.268;2023-04-25T02:27:54;6.88;;;4.35;;
43877;SDS011;29815;48.184;11.268;2023-04-25T02:30:24;5.60;;;3.25;;
43877;SDS011;29815;48.184;11.268;2023-04-25T02:32:53;5.70;;;2.85;;
43877;SDS011;29815;48.184;11.268;2023-04-25T02:35:24;5.63;;;2.13;;
43877;SDS011;29815;48.184;11.268;2023-04-25T02:37:55;3.03;;;2.25;;
43877;SDS011;29815;48.184;11.268;2023-04-25T02:40:25;3.75;;;2.50;;
43877;SDS011;29815;48.184;11.268;2023-04-25T02:42:54;2.97;;;2.25;;
43877;SDS011;29815;48.184;11.268;2023-04-25T02:45:26;3.10;;;2.55;;
43877;SDS011;29815;48.184;11.268;2023-04-25T02:47:56;3.08;;;2.45;;
43877;SDS011;29815;48.184;11.268;2023-04-25T02:50:25;3.47;;;2.42;;
43877;SDS011;29815;48.184;11.268;2023-04-25T02:52:56;4.10;;;2.30;;
43877;SDS011;29815;48.184;11.268;2023-04-25T02:55:32;4.10;;;2.72;;
43877;SDS011;29815;48.184;11.268;2023-04-25T02:58:04;4.53;;;2.70;;
43877;SDS011;29815;48.184;11.268;2023-04-25T03:00:54;5.22;;;2.95;;
43877;SDS011;29815;48.184;11.268;2023-04-25T03:03:23;2.83;;;2.05;;
43877;SDS011;29815;48.184;11.268;2023-04-25T03:05:53;4.78;;;2.08;;
43877;SDS011;29815;48.184;11.268;2023-04-25T03:08:29;6.70;;;2.00;;
43877;SDS011;29815;48.184;11.268;2023-04-25T03:13:30;5.07;;;2.58;;
43877;SDS011;29815;48.184;11.268;2023-04-25T03:16:00;3.65;;;2.20;;
43877;SDS011;29815;48.184;11.268;2023-04-25T03:18:30;4.70;;;2.67;;
43877;SDS011;29815;48.184;11.268;2023-04-25T03:20:59;4.28;;;3.20;;
43877;SDS011;29815;48.184;11.268;2023-04-25T03:23:32;5.63;;;2.25;;
43877;SDS011;29815;48.184;11.268;2023-04-25T03:26:02;3.10;;;2.20;;
43877;SDS011;29815;48.184;11.268;2023-04-25T03:28:31;4.38;;;1.88;;
43877;SDS011;29815;48.184;11.268;2023-04-25T03:31:01;4.15;;;2.20;;
43877;SDS011;29815;48.184;11.268;2023-04-25T03:33:30;4.65;;;1.75;;
43877;SDS011;29815;48.184;11.268;2023-04-25T03:36:00;2.88;;;2.00;;
43877;SDS011;29815;48.184;11.268;2023-04-25T03:38:30;2.50;;;1.80;;
43877;SDS011;29815;48.184;11.268;2023-04-25T03:41:01;3.15;;;1.98;;
43877;SDS011;29815;48.184;11.268;2023-04-25T03:43:38;2.97;;;1.65;;
43877;SDS011;29815;48.184;11.268;2023-04-25T03:46:12;4.78;;;2.35;;
43877;SDS011;29815;48.184;11.268;2023-04-25T03:48:42;5.07;;;2.33;;
43877;SDS011;29815;48.184;11.268;2023-04-25T03:51:17;2.75;;;1.85;;
43877;SDS011;29815;48.184;11.268;2023-04-25T03:53:49;3.88;;;1.70;;
43877;SDS011;29815;48.184;11.268;2023-04-25T03:56:19;4.40;;;2.25;;
43877;SDS011;29815;48.184;11.268;2023-04-25T03:58:56;4.57;;;2.25;;
43877;SDS011;29815;48.184;11.268;2023-04-25T04:01:28;2.42;;;1.60;;
43877;SDS011;29815;48.184;11.268;2023-04-25T04:03:57;5.18;;;2.40;;
43877;SDS011;29815;48.184;11.268;2023-04-25T04:06:29;2.47;;;1.80;;
43877;SDS011;29815;48.184;11.268;2023-04-25T04:09:09;3.97;;;1.90;;
43877;SDS011;29815;48.184;11.268;2023-04-25T04:11:42;4.18;;;1.90;;
43877;SDS011;29815;48.184;11.268;2023-04-25T04:14:11;6.32;;;2.40;;
43877;SDS011;29815;48.184;11.268;2023-04-25T04:16:44;4.88;;;2.85;;
43877;SDS011;29815;48.184;11.268;2023-04-25T04:19:14;3.90;;;1.95;;
43877;SDS011;29815;48.184;11.268;2023-04-25T04:21:50;4.25;;;2.08;;
43877;SDS011;29815;48.184;11.268;2023-04-25T04:24:22;3.28;;;1.90;;
43877;SDS011;29815;48.184;11.268;2023-04-25T04:27:02;3.10;;;1.90;;
43877;SDS011;29815;48.184;11.268;2023-04-25T04:29:36;4.80;;;2.05;;
43877;SDS011;29815;48.184;11.268;2023-04-25T04:32:20;4.72;;;2.10;;
43877;SDS011;29815;48.184;11.268;2023-04-25T04:34:50;3.33;;;2.25;;
43877;SDS011;29815;48.184;11.268;2023-04-25T04:37:23;4.10;;;2.08;;
43877;SDS011;29815;48.184;11.268;2023-04-25T04:39:54;2.85;;;2.17;;
43877;SDS011;29815;48.184;11.268;2023-04-25T04:42:31;4.38;;;2.50;;
43877;SDS011;29815;48.184;11.268;2023-04-25T04:45:26;3.22;;;1.80;;
43877;SDS011;29815;48.184;11.268;2023-04-25T04:48:18;1.73;;;1.55;;
43877;SDS011;29815;48.184;11.268;2023-04-25T04:51:20;4.13;;;1.65;;
43877;SDS011;29815;48.184;11.268;2023-04-25T04:53:53;2.95;;;1.90;;
43877;SDS011;29815;48.184;11.268;2023-04-25T04:56:45;4.25;;;2.45;;
43877;SDS011;29815;48.184;11.268;2023-04-25T04:59:28;2.90;;;1.83;;
43877;SDS011;29815;48.184;11.268;2023-04-25T05:02:00;4.43;;;2.30;;
43877;SDS011;29815;48.184;11.268;2023-04-25T05:04:45;3.00;;;2.03;;
43877;SDS011;29815;48.184;11.268;2023-04-25T05:07:34;4.78;;;3.03;;
43877;SDS011;29815;48.184;11.268;2023-04-25T05:10:18;6.18;;;2.45;;
43877;SDS011;29815;48.184;11.268;2023-04-25T05:13:08;3.95;;;2.50;;
43877;SDS011;29815;48.184;11.268;2023-04-25T05:15:49;4.40;;;3.35;;
43877;SDS011;29815;48.184;11.268;2023-04-25T05:18:22;3.70;;;2.83;;
43877;SDS011;29815;48.184;11.268;2023-04-25T05:21:06;5.57;;;3.10;;
43877;SDS011;29815;48.184;11.268;2023-04-25T05:23:55;3.75;;;2.45;;
43877;SDS011;29815;48.184;11.268;2023-04-25T05:26:44;4.53;;;2.45;;
43877;SDS011;29815;48.184;11.268;2023-04-25T05:29:27;4.68;;;2.67;;
43877;SDS011;29815;48.184;11.268;2023-04-25T05:32:06;4.20;;;2.67;;
43877;SDS011;29815;48.184;11.268;2023-04-25T05:34:36;5.32;;;3.10;;
43877;SDS011;29815;48.184;11.268;2023-04-25T05:37:12;5.93;;;2.53;;
43877;SDS011;29815;48.184;11.268;2023-04-25T05:39:53;3.95;;;3.10;;
43877;SDS011;29815;48.184;11.268;2023-04-25T05:42:45;5.03;;;3.95;;
43877;SDS011;29815;48.184;11.268;2023-04-25T05:45:42;4.03;;;2.90;;
43877;SDS011;29815;48.184;11.268;2023-04-25T05:48:39;4.78;;;3.30;;
43877;SDS011;29815;48.184;11.268;2023-04-25T05:51:19;4.82;;;3.03;;
43877;SDS011;29815;48.184;11.268;2023-04-25T05:54:11;5.47;;;3.90;;
43877;SDS011;29815;48.184;11.268;2023-04-25T05:56:41;5.90;;;3.35;;
43877;SDS011;29815;48.184;11.268;2023-04-25T05:59:11;6.53;;;3.30;;
43877;SDS011;29815;48.184;11.268;2023-04-25T06:01:41;4.43;;;3.25;;
43877;SDS011;29815;48.184;11.268;2023-04-25T06:04:11;9.63;;;3.15;;
43877;SDS011;29815;48.184;11.268;2023-04-25T06:06:42;4.85;;;2.70;;
43877;SDS011;29815;48.184;11.268;2023-04-25T06:09:11;6.63;;;3.50;;
43877;SDS011;29815;48.184;11.268;2023-04-25T06:11:41;6.47;;;3.47;;
43877;SDS011;29815;48.184;11.268;2023-04-25T06:14:11;4.25;;;2.83;;
43877;SDS011;29815;48.184;11.268;2023-04-25T06:16:47;4.72;;;2.90;;
43877;SDS011;29815;48.184;11.268;2023-04-25T06:19:17;7.38;;;3.55;;
43877;SDS011;29815;48.184;11.268;2023-04-25T06:21:47;9.48;;;3.63;;
43877;SDS011;29815;48.184;11.268;2023-04-25T06:24:16;7.55;;;3.72;;
43877;SDS011;29815;48.184;11.268;2023-04-25T06:26:46;6.82;;;3.88;;
43877;SDS011;29815;48.184;11.268;2023-04-25T06:29:15;8.40;;;4.10;;
43877;SDS011;29815;48.184;11.268;2023-04-25T06:31:47;6.45;;;3.78;;
43877;SDS011;29815;48.184;11.268;2023-04-25T06:34:17;5.70;;;3.10;;
43877;SDS011;29815;48.184;11.268;2023-04-25T06:36:47;6.18;;;3.38;;
43877;SDS011;29815;48.184;11.268;2023-04-25T06:39:16;4.97;;;3.53;;
43877;SDS011;29815;48.184;11.268;2023-04-25T06:41:49;6.82;;;3.38;;
43877;SDS011;29815;48.184;11.268;2023-04-25T06:44:40;5.65;;;2.90;;
43877;SDS011;29815;48.184;11.268;2023-04-25T06:47:12;4.00;;;2.65;;
43877;SDS011;29815;48.184;11.268;2023-04-25T06:49:43;4.13;;;2.60;;
43877;SDS011;29815;48.184;11.268;2023-04-25T06:52:12;4.45;;;3.00;;
43877;SDS011;29815;48.184;11.268;2023-04-25T06:54:42;3.63;;;2.78;;
43877;SDS011;29815;48.184;11.268;2023-04-25T06:57:27;6.00;;;2.55;;
43877;SDS011;29815;48.184;11.268;2023-04-25T07:00:08;4.25;;;2.33;;
43877;SDS011;29815;48.184;11.268;2023-04-25T07:02:40;3.45;;;2.40;;
43877;SDS011;29815;48.184;11.268;2023-04-25T07:05:11;4.80;;;2.63;;
43877;SDS011;29815;48.184;11.268;2023-04-25T07:07:40;5.47;;;2.80;;
43877;SDS011;29815;48.184;11.268;2023-04-25T07:10:10;2.55;;;2.30;;
43877;SDS011;29815;48.184;11.268;2023-04-25T07:12:39;5.47;;;3.03;;
43877;SDS011;29815;48.184;11.268;2023-04-25T07:15:09;2.92;;;2.42;;
43877;SDS011;29815;48.184;11.268;2023-04-25T07:20:13;8.38;;;3.97;;
43877;SDS011;29815;48.184;11.268;2023-04-25T07:22:43;4.53;;;3.30;;
43877;SDS011;29815;48.184;11.268;2023-04-25T07:25:13;6.53;;;4.03;;
43877;SDS011;29815;48.184;11.268;2023-04-25T07:27:43;7.80;;;3.55;;
43877;SDS011;29815;48.184;11.268;2023-04-25T07:30:17;5.72;;;3.42;;
43877;SDS011;29815;48.184;11.268;2023-04-25T07:32:49;8.07;;;2.90;;
43877;SDS011;29815;48.184;11.268;2023-04-25T07:35:19;6.97;;;3.55;;
43877;SDS011;29815;48.184;11.268;2023-04-25T07:37:48;5.70;;;3.13;;
43877;SDS011;29815;48.184;11.268;2023-04-25T07:40:19;6.45;;;3.30;;
43877;SDS011;29815;48.184;11.268;2023-04-25T07:42:53;5.95;;;2.78;;
43877;SDS011;29815;48.184;11.268;2023-04-25T07:45:38;5.10;;;3.20;;
43877;SDS011;29815;48.184;11.268;2023-04-25T07:48:10;4.85;;;3.35;;
43877;SDS011;29815;48.184;11.268;2023-04-25T07:50:40;4.93;;;2.83;;
43877;SDS011;29815;48.184;11.268;2023-04-25T07:53:10;7.57;;;4.07;;
43877;SDS011;29815;48.184;11.268;2023-04-25T07:55:47;4.28;;;2.17;;
43877;SDS011;29815;48.184;11.268;2023-04-25T07:58:18;3.50;;;2.50;;
43877;SDS011;29815;48.184;11.268;2023-04-25T08:00:54;4.07;;;1.80;;
43877;SDS011;29815;48.184;11.268;2023-04-25T08:03:33;2.58;;;1.90;;
43877;SDS011;29815;48.184;11.268;2023-04-25T08:06:08;6.60;;;2.70;;
43877;SDS011;29815;48.184;11.268;2023-04-25T08:08:53;6.30;;;2.40;;
43877;SDS011;29815;48.184;11.268;2023-04-25T08:11:28;3.00;;;2.13;;
43877;SDS011;29815;48.184;11.268;2023-04-25T08:13:58;2.42;;;1.95;;
43877;SDS011;29815;48.184;11.268;2023-04-25T08:16:27;5.00;;;2.15;;
43877;SDS011;29815;48.184;11.268;2023-04-25T08:18:59;5.70;;;2.58;;
43877;SDS011;29815;48.184;11.268;2023-04-25T08:21:29;5.03;;;3.28;;
43877;SDS011;29815;48.184;11.268;2023-04-25T08:24:04;3.70;;;2.30;;
43877;SDS011;29815;48.184;11.268;2023-04-25T08:26:37;5.40;;;2.05;;
43877;SDS011;29815;48.184;11.268;2023-04-25T08:29:10;3.97;;;1.90;;
43877;SDS011;29815;48.184;11.268;2023-04-25T08:31:41;3.50;;;1.90;;
43877;SDS011;29815;48.184;11.268;2023-04-25T08:34:12;3.38;;;1.95;;
43877;SDS011;29815;48.184;11.268;2023-04-25T08:36:45;3.28;;;1.60;;
43877;SDS011;29815;48.184;11.268;2023-04-25T08:39:37;3.53;;;1.70;;
43877;SDS011;29815;48.184;11.268;2023-04-25T08:42:21;6.03;;;2.25;;
43877;SDS011;29815;48.184;11.268;2023-04-25T08:44:53;3.97;;;1.80;;
43877;SDS011;29815;48.184;11.268;2023-04-25T08:47:26;6.43;;;2.38;;
43877;SDS011;29815;48.184;11.268;2023-04-25T08:50:00;2.65;;;1.92;;
43877;SDS011;29815;48.184;11.268;2023-04-25T08:52:36;5.60;;;2.20;;
43877;SDS011;29815;48.184;11.268;2023-04-25T08:55:12;3.65;;;1.80;;
43877;SDS011;29815;48.184;11.268;2023-04-25T08:57:43;4.38;;;1.95;;
43877;SDS011;29815;48.184;11.268;2023-04-25T09:00:13;4.18;;;1.98;;
43877;SDS011;29815;48.184;11.268;2023-04-25T09:02:45;5.20;;;2.55;;
43877;SDS011;29815;48.184;11.268;2023-04-25T09:05:17;4.00;;;1.50;;
43877;SDS011;29815;48.184;11.268;2023-04-25T09:07:52;5.47;;;2.13;;
43877;SDS011;29815;48.184;11.268;2023-04-25T09:10:21;3.88;;;2.15;;
43877;SDS011;29815;48.184;11.268;2023-04-25T09:13:03;3.85;;;1.95;;
43877;SDS011;29815;48.184;11.268;2023-04-25T09:15:56;4.75;;;2.35;;
43877;SDS011;29815;48.184;11.268;2023-04-25T09:18:53;3.25;;;2.13;;
43877;SDS011;29815;48.184;11.268;2023-04-25T09:21:24;3.55;;;2.13;;
43877;SDS011;29815;48.184;11.268;2023-04-25T09:23:54;2.92;;;1.80;;
43877;SDS011;29815;48.184;11.268;2023-04-25T09:26:23;4.03;;;1.90;;
43877;SDS011;29815;48.184;11.268;2023-04-25T09:29:03;9.88;;;2.78;;
43877;SDS011;29815;48.184;11.268;2023-04-25T09:31:38;4.32;;;2.10;;
43877;SDS011;29815;48.184;11.268;2023-04-25T09:34:10;4.75;;;2.08;;
43877;SDS011;29815;48.184;11.268;2023-04-25T09:36:48;4.18;;;2.03;;
43877;SDS011;29815;48.184;11.268;2023-04-25T09:39:47;2.10;;;1.55;;
43877;SDS011;29815;48.184;11.268;2023-04-25T09:42:20;2.78;;;1.80;;
43877;SDS011;29815;48.184;11.268;2023-04-25T09:44:53;2.97;;;1.48;;
43877;SDS011;29815;48.184;11.268;2023-04-25T09:47:25;3.65;;;2.13;;
43877;SDS011;29815;48.184;11.268;2023-04-25T09:49:56;2.05;;;1.80;;
43877;SDS011;29815;48.184;11.268;2023-04-25T09:52:27;3.83;;;1.85;;
43877;SDS011;29815;48.184;11.268;2023-04-25T09:57:39;3.90;;;1.63;;
43877;SDS011;29815;48.184;11.268;2023-04-25T10:05:44;3.50;;;2.00;;
43877;SDS011;29815;48.184;11.268;2023-04-25T10:10:49;2.92;;;2.00;;
43877;SDS011;29815;48.184;11.268;2023-04-25T10:18:18;2.83;;;1.58;;
43877;SDS011;29815;48.184;11.268;2023-04-25T10:20:48;3.70;;;2.00;;
43877;SDS011;29815;48.184;11.268;2023-04-25T10:23:22;3.97;;;2.30;;
43877;SDS011;29815;48.184;11.268;2023-04-25T10:25:52;4.47;;;2.28;;
43877;SDS011;29815;48.184;11.268;2023-04-25T10:28:23;2.35;;;1.50;;
43877;SDS011;29815;48.184;11.268;2023-04-25T10:30:58;3.10;;;1.98;;
43877;SDS011;29815;48.184;11.268;2023-04-25T10:33:32;3.28;;;1.60;;
43877;SDS011;29815;48.184;11.268;2023-04-25T10:36:10;2.85;;;1.90;;
43877;SDS011;29815;48.184;11.268;2023-04-25T10:38:43;3.97;;;2.28;;
43877;SDS011;29815;48.184;11.268;2023-04-25T10:41:14;5.03;;;1.88;;
43877;SDS011;29815;48.184;11.268;2023-04-25T10:43:46;1.58;;;1.40;;
43877;SDS011;29815;48.184;11.268;2023-04-25T10:46:18;2.65;;;1.45;;
43877;SDS011;29815;48.184;11.268;2023-04-25T10:48:53;2.78;;;1.27;;
43877;SDS011;29815;48.184;11.268;2023-04-25T10:51:25;3.20;;;1.27;;
43877;SDS011;29815;48.184;11.268;2023-04-25T10:54:18;2.85;;;1.40;;
43877;SDS011;29815;48.184;11.268;2023-04-25T10:56:52;5.80;;;2.00;;
43877;SDS011;29815;48.184;11.268;2023-04-25T10:59:23;2.22;;;1.38;;
43877;SDS011;29815;48.184;11.268;2023-04-25T11:01:54;1.33;;;0.88;;
43877;SDS011;29815;48.184;11.268;2023-04-25T11:04:27;2.58;;;1.20;;
43877;SDS011;29815;48.184;11.268;2023-04-25T11:07:03;3.13;;;1.50;;
43877;SDS011;29815;48.184;11.268;2023-04-25T11:09:44;1.55;;;1.20;;
43877;SDS011;29815;48.184;11.268;2023-04-25T11:12:14;1.70;;;1.10;;
43877;SDS011;29815;48.184;11.268;2023-04-25T11:14:44;3.85;;;1.50;;
43877;SDS011;29815;48.184;11.268;2023-04-25T11:17:14;2.03;;;1.17;;
43877;SDS011;29815;48.184;11.268;2023-04-25T11:19:43;1.70;;;1.27;;
43877;SDS011;29815;48.184;11.268;2023-04-25T11:22:17;1.98;;;1.17;;
43877;SDS011;29815;48.184;11.268;2023-04-25T11:24:48;1.98;;;1.27;;
43877;SDS011;29815;48.184;11.268;2023-04-25T11:27:18;1.60;;;1.42;;
43877;SDS011;29815;48.184;11.268;2023-04-25T11:29:49;2.70;;;1.60;;
43877;SDS011;29815;48.184;11.268;2023-04-25T11:32:18;4.97;;;1.48;;
43877;SDS011;29815;48.184;11.268;2023-04-25T11:34:52;2.03;;;0.97;;
43877;SDS011;29815;48.184;11.268;2023-04-25T11:37:21;2.42;;;1.15;;
43877;SDS011;29815;48.184;11.268;2023-04-25T11:39:52;2.15;;;1.15;;
43877;SDS011;29815;48.184;11.268;2023-04-25T11:42:22;1.45;;;1.00;;
43877;SDS011;29815;48.184;11.268;2023-04-25T11:44:51;1.27;;;0.90;;
43877;SDS011;29815;48.184;11.268;2023-04-25T11:47:26;1.95;;;1.02;;
43877;SDS011;29815;48.184;11.268;2023-04-25T11:49:58;2.47;;;1.27;;
43877;SDS011;29815;48.184;11.268;2023-04-25T11:52:35;1.40;;;1.10;;
43877;SDS011;29815;48.184;11.268;2023-04-25T11:55:09;2.50;;;1.75;;
43877;SDS011;29815;48.184;11.268;2023-04-25T11:57:43;1.85;;;1.17;;
43877;SDS011;29815;48.184;11.268;2023-04-25T12:00:17;3.08;;;2.20;;
43877;SDS011;29815;48.184;11.268;2023-04-25T12:05:23;1.55;;;1.02;;
43877;SDS011;29815;48.184;11.268;2023-04-25T12:08:09;1.30;;;1.10;;
43877;SDS011;29815;48.184;11.268;2023-04-25T12:10:42;2.45;;;1.50;;
43877;SDS011;29815;48.184;11.268;2023-04-25T12:13:22;2.38;;;1.13;;
43877;SDS011;29815;48.184;11.268;2023-04-25T12:15:55;2.47;;;1.35;;
43877;SDS011;29815;48.184;11.268;2023-04-25T12:18:25;2.65;;;1.65;;
43877;SDS011;29815;48.184;11.268;2023-04-25T12:20:55;2.22;;;1.48;;
43877;SDS011;29815;48.184;11.268;2023-04-25T12:23:27;1.38;;;1.27;;
43877;SDS011;29815;48.184;11.268;2023-04-25T12:25:59;2.42;;;1.13;;
43877;SDS011;29815;48.184;11.268;2023-04-25T12:28:31;1.58;;;1.13;;
43877;SDS011;29815;48.184;11.268;2023-04-25T12:31:02;2.83;;;1.05;;
43877;SDS011;29815;48.184;11.268;2023-04-25T12:33:34;1.40;;;1.10;;
43877;SDS011;29815;48.184;11.268;2023-04-25T12:36:05;1.65;;;1.08;;
43877;SDS011;29815;48.184;11.268;2023-04-25T12:38:38;2.45;;;1.13;;
43877;SDS011;29815;48.184;11.268;2023-04-25T12:41:11;1.92;;;1.27;;
43877;SDS011;29815;48.184;11.268;2023-04-25T12:43:40;2.08;;;1.30;;
43877;SDS011;29815;48.184;11.268;2023-04-25T12:46:10;1.40;;;1.20;;
43877;SDS011;29815;48.184;11.268;2023-04-25T12:48:39;2.00;;;1.20;;
43877;SDS011;29815;48.184;11.268;2023-04-25T12:51:10;1.92;;;0.90;;
43877;SDS011;29815;48.184;11.268;2023-04-25T12:53:40;1.70;;;1.08;;
43877;SDS011;29815;48.184;11.268;2023-04-25T12:56:11;3.88;;;1.38;;
43877;SDS011;29815;48.184;11.268;2023-04-25T12:58:41;2.42;;;0.95;;
43877;SDS011;29815;48.184;11.268;2023-04-25T13:01:11;1.75;;;1.20;;
43877;SDS011;29815;48.184;11.268;2023-04-25T13:03:41;1.63;;;0.60;;
43877;SDS011;29815;48.184;11.268;2023-04-25T13:06:11;1.08;;;0.70;;
43877;SDS011;29815;48.184;11.268;2023-04-25T13:08:41;2.10;;;0.77;;
43877;SDS011;29815;48.184;11.268;2023-04-25T13:11:12;1.10;;;0.80;;
43877;SDS011;29815;48.184;11.268;2023-04-25T13:13:42;0.90;;;0.77;;
43877;SDS011;29815;48.184;11.268;2023-04-25T13:16:12;1.20;;;1.10;;
43877;SDS011;29815;48.184;11.268;2023-04-25T13:18:42;1.73;;;1.00;;
43877;SDS011;29815;48.184;11.268;2023-04-25T13:21:12;1.48;;;1.08;;
43877;SDS011;29815;48.184;11.268;2023-04-25T13:23:41;1.88;;;1.30;;
43877;SDS011;29815;48.184;11.268;2023-04-25T13:26:13;1.75;;;1.23;;
43877;SDS011;29815;48.184;11.268;2023-04-25T13:28:43;1.88;;;1.48;;
43877;SDS011;29815;48.184;11.268;2023-04-25T13:31:12;2.75;;;1.23;;
43877;SDS011;29815;48.184;11.268;2023-04-25T13:33:42;1.45;;;0.73;;
43877;SDS011;29815;48.184;11.268;2023-04-25T13:36:12;1.10;;;0.90;;
43877;SDS011;29815;48.184;11.268;2023-04-25T13:38:42;2.97;;;1.00;;
43877;SDS011;29815;48.184;11.268;2023-04-25T13:41:16;1.42;;;1.00;;
43877;SDS011;29815;48.184;11.268;2023-04-25T13:43:46;3.03;;;0.90;;
43877;SDS011;29815;48.184;11.268;2023-04-25T13:46:16;1.33;;;0.88;;
43877;SDS011;29815;48.184;11.268;2023-04-25T13:48:48;1.87;;;0.97;;
43877;SDS011;29815;48.184;11.268;2023-04-25T13:51:22;1.10;;;0.90;;
43877;SDS011;29815;48.184;11.268;2023-04-25T13:53:51;1.17;;;0.55;;
43877;SDS011;29815;48.184;11.268;2023-04-25T13:56:22;0.85;;;0.80;;
43877;SDS011;29815;48.184;11.268;2023-04-25T13:58:52;2.60;;;1.30;;
43877;SDS011;29815;48.184;11.268;2023-04-25T14:01:22;1.63;;;1.02;;
43877;SDS011;29815;48.184;11.268;2023-04-25T14:03:51;1.90;;;0.90;;
43877;SDS011;29815;48.184;11.268;2023-04-25T14:06:21;2.35;;;1.15;;
43877;SDS011;29815;48.184;11.268;2023-04-25T14:08:51;1.55;;;1.00;;
43877;SDS011;29815;48.184;11.268;2023-04-25T14:11:22;1.40;;;1.00;;
43877;SDS011;29815;48.184;11.268;2023-04-25T14:13:52;1.80;;;1.13;;
43877;SDS011;29815;48.184;11.268;2023-04-25T14:16:22;2.30;;;1.52;;
43877;SDS011;29815;48.184;11.268;2023-04-25T14:18:52;2.70;;;1.42;;
43877;SDS011;29815;48.184;11.268;2023-04-25T14:21:21;1.65;;;1.30;;
43877;SDS011;29815;48.184;11.268;2023-04-25T14:23:51;3.40;;;1.10;;
43877;SDS011;29815;48.184;11.268;2023-04-25T14:26:22;0.93;;;0.77;;
43877;SDS011;29815;48.184;11.268;2023-04-25T14:28:52;1.05;;;0.75;;
43877;SDS011;29815;48.184;11.268;2023-04-25T14:31:22;1.35;;;1.17;;
43877;SDS011;29815;48.184;11.268;2023-04-25T14:33:51;1.20;;;1.02;;
43877;SDS011;29815;48.184;11.268;2023-04-25T14:36:25;2.35;;;1.70;;
43877;SDS011;29815;48.184;11.268;2023-04-25T14:38:58;1.63;;;1.10;;
43877;SDS011;29815;48.184;11.268;2023-04-25T14:41:29;1.70;;;1.20;;
43877;SDS011;29815;48.184;11.268;2023-04-25T14:43:59;2.05;;;1.20;;
43877;SDS011;29815;48.184;11.268;2023-04-25T14:46:28;1.65;;;0.90;;
43877;SDS011;29815;48.184;11.268;2023-04-25T14:48:58;1.42;;;0.90;;
43877;SDS011;29815;48.184;11.268;2023-04-25T14:51:28;3.58;;;1.52;;
43877;SDS011;29815;48.184;11.268;2023-04-25T14:53:58;2.00;;;1.50;;
43877;SDS011;29815;48.184;11.268;2023-04-25T14:56:27;1.48;;;1.25;;
43877;SDS011;29815;48.184;11.268;2023-04-25T14:58:58;1.45;;;1.20;;
43877;SDS011;29815;48.184;11.268;2023-04-25T15:01:28;2.03;;;1.35;;
43877;SDS011;29815;48.184;11.268;2023-04-25T15:03:58;1.80;;;1.33;;
43877;SDS011;29815;48.184;11.268;2023-04-25T15:06:28;1.33;;;1.10;;
43877;SDS011;29815;48.184;11.268;2023-04-25T15:08:57;1.52;;;1.30;;
43877;SDS011;29815;48.184;11.268;2023-04-25T15:11:27;3.53;;;1.25;;
43877;SDS011;29815;48.184;11.268;2023-04-25T15:13:58;1.52;;;1.27;;
43877;SDS011;29815;48.184;11.268;2023-04-25T15:16:27;1.92;;;1.35;;
43877;SDS011;29815;48.184;11.268;2023-04-25T15:18:58;1.52;;;1.13;;
43877;SDS011;29815;48.184;11.268;2023-04-25T15:21:31;2.08;;;1.23;;
43877;SDS011;29815;48.184;11.268;2023-04-25T15:24:00;1.58;;;0.98;;
43877;SDS011;29815;48.184;11.268;2023-04-25T15:26:31;2.08;;;1.48;;
43877;SDS011;29815;48.184;11.268;2023-04-25T15:29:01;1.67;;;1.13;;
43877;SDS011;29815;48.184;11.268;2023-04-25T15:31:33;1.80;;;1.40;;
43877;SDS011;29815;48.184;11.268;2023-04-25T15:34:03;1.65;;;1.10;;
43877;SDS011;29815;48.184;11.268;2023-04-25T15:36:32;1.55;;;1.05;;